SASA/SLA METAR and TAF weather

Enter ICAO airport designator
Station Type Date Time Source
SASA METAR 2022/01/19 21:00 UTC NOAA

SASA 192100Z 04011KT 9999 SCT025TCU SCT040 24/18 Q1015 RMK PP000


Station Type Date Time Source
SASA Decoded METAR 2022/01/19 21:00 UTC NOAA

Salta Aerodrome, Argentina (SASA) 24-51S 065-29W 1221M
Jan 19, 2022 - 04:00 PM EST / 2022.01.19 2100 UTC
Wind: from the NE (040 degrees) at 13 MPH (11 KT):0
Visibility: greater than 7 mile(s):0
Sky conditions: partly cloudy
Weather: Towering cumulus clouds observed
Temperature: 75 F (24 C)
Dew Point: 64 F (18 C)
Relative Humidity: 69%
Pressure (altimeter): 29.97 in. Hg (1015 hPa)
ob: SASA 192100Z 04011KT 9999 SCT025TCU SCT040 24/18 Q1015 RMK PP000
cycle: 21

Station Type Date Time Source
SASA TAF 2022/01/19 18:24 UTC NOAA

TAF SASA 191700Z 1918/2018 07010KT 9999 BKN025 TX27/1919Z TN15/2009Z PROB40
TEMPO 1920/1922 6000 TSRA SCT020 BKN030 FEW040CB
BECMG 2002/2005 07005KT 9999 -RA BKN007 OVC030
BECMG 2006/2009 VRB03KT 5000 -DZ BR OVC010
BECMG 2012/2018 07010KT 9999 BKN030

Example: see airport list